Time;durP1;ratioP1;P1;durP2;ratioP2;P2;SDS_P1;SDS_P2;PMS_P1;PMS_P2;Temp;Humidity;BMP_temperature;BMP_pressure;BME280_temperature;BME280_humidity;BME280_pressure;Samples;Min_cycle;Max_cycle;Signal;HPM_P1;HPM_P2
2022/05/13 00:01:32;;;;;;;8.88;5.35;;;17.70;99.90;;;;;;5090239;28;20128;-65
2022/05/13 00:03:59;;;;;;;12.32;4.93;;;17.70;99.90;;;;;;5093959;28;20046;-65
2022/05/13 00:06:27;;;;;;;11.75;4.80;;;17.70;99.90;;;;;;5099336;28;20469;-65
2022/05/13 00:08:54;;;;;;;9.75;4.68;;;17.80;99.90;;;;;;5092477;28;20052;-65
2022/05/13 00:11:22;;;;;;;10.02;5.28;;;17.80;99.90;;;;;;5109349;28;20036;-65
2022/05/13 00:13:49;;;;;;;7.65;5.28;;;17.80;99.90;;;;;;5105236;28;20132;-65
2022/05/13 00:16:17;;;;;;;6.97;5.00;;;17.80;99.90;;;;;;5105709;28;20124;-65
2022/05/13 00:18:44;;;;;;;10.65;5.20;;;17.70;99.90;;;;;;5107873;27;20070;-65
2022/05/13 00:21:12;;;;;;;10.10;5.05;;;17.70;99.90;;;;;;5106387;27;20048;-65
2022/05/13 00:23:40;;;;;;;12.32;5.43;;;17.80;99.90;;;;;;5108231;28;20059;-65
2022/05/13 00:26:07;;;;;;;7.30;5.13;;;17.80;99.90;;;;;;5107687;28;20055;-65
2022/05/13 00:28:34;;;;;;;7.35;5.20;;;17.70;99.90;;;;;;5106047;28;20085;-65
2022/05/13 00:31:04;;;;;;;6.55;4.90;;;17.80;99.90;;;;;;5102037;28;20036;-66
2022/05/13 00:33:32;;;;;;;10.07;5.20;;;17.80;99.90;;;;;;5097663;28;20790;-65
2022/05/13 00:36:00;;;;;;;9.73;4.85;;;17.70;99.90;;;;;;5098895;28;20051;-65
2022/05/13 00:38:27;;;;;;;7.00;4.75;;;17.70;99.90;;;;;;5093509;28;20070;-65
2022/05/13 00:40:55;;;;;;;9.75;5.55;;;17.70;99.90;;;;;;5100008;28;20052;-64
2022/05/13 00:43:41;;;;;;;10.30;5.43;;;17.80;99.90;;;;;;5107386;28;20042;-65
2022/05/13 00:46:08;;;;;;;10.27;5.93;;;17.70;99.90;;;;;;5107063;28;20396;-64
2022/05/13 00:48:35;;;;;;;12.05;6.35;;;17.70;99.90;;;;;;5108362;28;20536;-65
2022/05/13 00:51:05;;;;;;;9.65;6.28;;;17.60;99.90;;;;;;5105116;28;20126;-64
2022/05/13 00:53:34;;;;;;;9.90;6.05;;;17.60;99.90;;;;;;5094940;28;20042;-64
2022/05/13 00:56:01;;;;;;;11.55;7.20;;;17.60;99.90;;;;;;5099909;28;20044;-64
2022/05/13 00:58:31;;;;;;;10.50;6.60;;;17.60;99.90;;;;;;5107031;28;20039;-65
2022/05/13 01:00:58;;;;;;;9.70;6.63;;;17.60;99.90;;;;;;5086850;28;20044;-64
2022/05/13 01:03:26;;;;;;;9.95;5.80;;;17.60;99.90;;;;;;5102049;28;20420;-64
2022/05/13 01:05:59;;;;;;;8.05;5.75;;;17.60;99.90;;;;;;5094242;28;20046;-64
2022/05/13 01:08:32;;;;;;;13.10;6.25;;;17.60;99.90;;;;;;5096439;28;20093;-65
2022/05/13 01:11:04;;;;;;;8.82;6.32;;;17.50;99.90;;;;;;5102658;28;20476;-65
2022/05/13 01:13:32;;;;;;;;;;;17.50;99.90;;;;;;5100129;28;20078;-65
2022/05/13 01:16:00;;;;;;;10.93;6.00;;;17.50;99.90;;;;;;5093376;28;19942;-64
2022/05/13 01:18:31;;;;;;;8.70;6.13;;;17.60;99.90;;;;;;5097395;28;20443;-64
2022/05/13 01:20:59;;;;;;;10.80;6.57;;;17.50;99.90;;;;;;5101235;28;20413;-64
2022/05/13 01:23:30;;;;;;;8.02;5.88;;;17.50;99.90;;;;;;5105462;28;20529;-65
2022/05/13 01:26:03;;;;;;;11.38;6.68;;;17.50;99.90;;;;;;5097394;28;20147;-65
2022/05/13 01:28:39;;;;;;;9.52;6.35;;;17.50;99.90;;;;;;5095495;28;20466;-64
2022/05/13 01:31:10;;;;;;;12.15;6.63;;;17.50;99.90;;;;;;5103751;28;20546;-65
2022/05/13 01:33:39;;;;;;;11.02;7.10;;;17.50;99.90;;;;;;5103528;28;20077;-64
2022/05/13 01:36:10;;;;;;;11.18;6.47;;;17.40;99.90;;;;;;5103465;28;20146;-64
2022/05/13 01:38:38;;;;;;;8.57;6.85;;;17.40;99.90;;;;;;5101280;28;20123;-65
2022/05/13 01:41:08;;;;;;;9.27;6.63;;;17.30;99.90;;;;;;5098993;28;20044;-64
2022/05/13 01:43:36;;;;;;;12.57;6.45;;;17.20;99.90;;;;;;5103382;28;20134;-64
2022/05/13 01:46:04;;;;;;;10.52;7.03;;;17.30;99.90;;;;;;5103391;28;20047;-65
2022/05/13 01:48:32;;;;;;;9.43;7.00;;;17.20;99.90;;;;;;5104369;28;20414;-65
2022/05/13 01:50:59;;;;;;;10.05;6.65;;;17.20;99.90;;;;;;5100659;28;20040;-65
2022/05/13 01:53:27;;;;;;;10.85;6.63;;;17.30;99.90;;;;;;5103630;28;20036;-64
2022/05/13 01:55:54;;;;;;;9.32;6.75;;;17.30;99.90;;;;;;5102255;28;20040;-64
2022/05/13 01:58:23;;;;;;;11.05;6.55;;;17.30;99.90;;;;;;5107461;28;20032;-65
2022/05/13 02:00:54;;;;;;;11.32;7.15;;;17.30;99.90;;;;;;5090903;28;20119;-64
2022/05/13 02:06:20;;;;;;;8.45;6.65;;;17.40;99.90;;;;;;5087092;28;20108;-64
2022/05/13 02:08:47;;;;;;;8.10;6.15;;;17.30;99.90;;;;;;5086878;28;20040;-64
2022/05/13 02:11:16;;;;;;;9.75;6.43;;;17.40;99.90;;;;;;5102936;28;20035;-64
2022/05/13 02:13:43;;;;;;;9.40;6.38;;;17.30;99.90;;;;;;5091922;28;20048;-65
2022/05/13 02:16:12;;;;;;;10.40;6.97;;;17.30;99.90;;;;;;5096265;28;20122;-63
2022/05/13 02:18:40;;;;;;;11.45;6.90;;;17.30;99.90;;;;;;5099468;27;20445;-63
2022/05/13 02:21:08;;;;;;;10.18;6.55;;;17.30;99.90;;;;;;5112696;27;20410;-63
2022/05/13 02:23:37;;;;;;;9.98;6.93;;;17.30;99.90;;;;;;5103563;28;20479;-63
2022/05/13 02:26:07;;;;;;;10.13;6.93;;;17.30;99.90;;;;;;5108099;28;20396;-64
2022/05/13 02:28:35;;;;;;;11.50;6.78;;;17.30;99.90;;;;;;5111347;28;20063;-64
2022/05/13 02:31:03;;;;;;;10.88;7.15;;;17.20;99.90;;;;;;5111412;28;20069;-64
2022/05/13 02:33:31;;;;;;;10.10;6.70;;;17.10;99.90;;;;;;5111993;28;20074;-63
2022/05/13 02:36:02;;;;;;;13.48;7.90;;;17.10;99.90;;;;;;5107875;28;20475;-64
2022/05/13 02:38:30;;;;;;;10.20;7.10;;;17.20;99.90;;;;;;5111556;28;20040;-64
2022/05/13 02:41:13;;;;;;;11.38;6.82;;;17.10;99.90;;;;;;5111517;28;20514;-64
2022/05/13 02:43:52;;;;;;;12.63;7.43;;;17.10;99.90;;;;;;5102626;28;20032;-65
2022/05/13 02:46:23;;;;;;;10.32;6.85;;;17.20;99.90;;;;;;5106180;28;20494;-64
2022/05/13 02:48:50;;;;;;;10.75;7.50;;;17.20;99.90;;;;;;5110469;28;20036;-63
2022/05/13 02:51:18;;;;;;;10.43;7.70;;;17.20;99.90;;;;;;5110487;28;20687;-65
2022/05/13 02:53:47;;;;;;;12.57;7.03;;;17.20;99.90;;;;;;5110841;28;20040;-65
2022/05/13 02:56:14;;;;;;;10.57;7.15;;;17.20;99.90;;;;;;5110750;28;20477;-65
2022/05/13 02:58:45;;;;;;;9.57;6.82;;;17.20;99.90;;;;;;5110950;28;20105;-64
2022/05/13 03:01:14;;;;;;;10.93;6.75;;;17.20;99.90;;;;;;5096119;28;20076;-64
2022/05/13 03:03:44;;;;;;;14.98;7.13;;;17.20;99.90;;;;;;5089892;28;20131;-64
2022/05/13 03:06:12;;;;;;;10.63;7.03;;;17.20;99.90;;;;;;5093915;28;20032;-64
2022/05/13 03:08:40;;;;;;;10.45;7.00;;;17.20;99.90;;;;;;5109611;28;20100;-64
2022/05/13 03:11:07;;;;;;;11.57;7.38;;;17.20;99.90;;;;;;5109880;28;20047;-64
2022/05/13 03:13:36;;;;;;;9.60;6.78;;;17.20;99.90;;;;;;5111108;28;20417;-64
2022/05/13 03:16:15;;;;;;;13.07;7.57;;;17.10;99.90;;;;;;5097630;28;20672;-64
2022/05/13 03:18:42;;;;;;;11.45;7.45;;;17.20;99.90;;;;;;5111175;27;20379;-66
2022/05/13 03:21:10;;;;;;;10.65;6.75;;;17.10;99.90;;;;;;5109180;27;20463;-65
2022/05/13 03:23:42;;;;;;;10.65;6.93;;;17.20;99.90;;;;;;5109137;28;20040;-65
2022/05/13 03:26:11;;;;;;;10.73;6.70;;;17.10;99.90;;;;;;5095861;27;20051;-65
2022/05/13 03:28:39;;;;;;;10.32;7.07;;;17.20;99.90;;;;;;5107910;28;20062;-65
2022/05/13 03:31:06;;;;;;;9.00;6.70;;;17.20;99.90;;;;;;5107639;28;20531;-66
2022/05/13 03:33:34;;;;;;;10.57;6.82;;;17.20;99.90;;;;;;5110317;28;20056;-65
2022/05/13 03:36:02;;;;;;;11.02;7.25;;;17.20;99.90;;;;;;5102660;28;20071;-64
2022/05/13 03:38:29;;;;;;;10.90;6.75;;;17.20;99.90;;;;;;5099558;27;20051;-65
2022/05/13 03:40:57;;;;;;;15.63;7.30;;;17.20;99.90;;;;;;5091785;28;20044;-64
2022/05/13 03:43:24;;;;;;;12.02;6.95;;;17.10;99.90;;;;;;5106030;28;20035;-65
2022/05/13 03:45:51;;;;;;;13.23;7.20;;;17.20;99.90;;;;;;5109763;28;20051;-65
2022/05/13 03:48:18;;;;;;;13.13;9.45;;;17.20;99.90;;;;;;5109332;28;20844;-65
2022/05/13 03:50:46;;;;;;;11.63;7.13;;;17.20;99.90;;;;;;5109751;28;20054;-65
2022/05/13 03:53:14;;;;;;;10.20;7.55;;;17.20;99.90;;;;;;5105960;28;20039;-66
2022/05/13 03:55:42;;;;;;;13.10;7.50;;;17.20;99.90;;;;;;5110088;28;20358;-65
2022/05/13 03:58:09;;;;;;;11.35;7.72;;;17.10;99.90;;;;;;5108713;28;20178;-65
2022/05/13 04:00:36;;;;;;;9.68;7.28;;;17.10;99.90;;;;;;5105528;28;20060;-65
2022/05/13 04:03:04;;;;;;;12.02;8.35;;;17.10;99.90;;;;;;5089707;28;20495;-65
2022/05/13 04:11:03;;;;;;;10.95;7.72;;;17.10;99.90;;;;;;5088772;28;20056;-65
2022/05/13 04:16:16;;;;;;;11.82;8.30;;;17.20;99.90;;;;;;5094358;28;20046;-65
2022/05/13 04:18:46;;;;;;;15.15;8.13;;;17.20;99.90;;;;;;5103260;27;20035;-66
2022/05/13 04:21:18;;;;;;;12.00;8.57;;;17.20;99.90;;;;;;5100731;28;20040;-65
2022/05/13 04:23:49;;;;;;;12.80;8.23;;;17.20;99.90;;;;;;5109818;28;20406;-65
2022/05/13 04:26:16;;;;;;;11.10;8.93;;;17.30;99.90;;;;;;5109112;27;20501;-65
2022/05/13 04:28:46;;;;;;;13.60;8.40;;;17.20;99.90;;;;;;5110293;28;20043;-65
2022/05/13 04:31:16;;;;;;;15.32;8.43;;;17.30;99.90;;;;;;5101983;28;20043;-64
2022/05/13 04:33:43;;;;;;;11.77;8.88;;;17.30;99.90;;;;;;5107844;28;20168;-64
2022/05/13 04:36:11;;;;;;;11.57;8.55;;;17.30;99.90;;;;;;5097690;28;20122;-64
2022/05/13 04:38:38;;;;;;;9.88;8.15;;;17.30;99.90;;;;;;5104570;28;20042;-64
2022/05/13 04:43:53;;;;;;;11.38;8.50;;;17.30;99.90;;;;;;5101927;28;20130;-65
2022/05/13 04:46:20;;;;;;;11.38;8.23;;;17.30;99.90;;;;;;5109779;28;20414;-64
2022/05/13 04:48:48;;;;;;;13.55;8.70;;;17.30;99.90;;;;;;5108635;27;20363;-65
2022/05/13 04:51:19;;;;;;;11.60;8.20;;;17.30;99.90;;;;;;5107961;28;20504;-64
2022/05/13 04:53:50;;;;;;;10.03;8.60;;;17.20;99.90;;;;;;5102682;28;20557;-65
2022/05/13 04:56:19;;;;;;;12.02;9.38;;;17.20;99.90;;;;;;5108068;28;20071;-64
2022/05/13 04:58:47;;;;;;;12.95;8.80;;;17.20;99.90;;;;;;5094976;28;20130;-64
2022/05/13 05:01:16;;;;;;;11.80;7.97;;;17.20;99.90;;;;;;5098145;28;20125;-65
2022/05/13 05:03:44;;;;;;;12.80;7.88;;;17.20;99.90;;;;;;5094422;27;20047;-64
2022/05/13 05:06:13;;;;;;;12.43;8.40;;;17.30;99.90;;;;;;5094921;28;20035;-64
2022/05/13 05:08:41;;;;;;;12.43;8.25;;;17.30;99.90;;;;;;5095876;28;20044;-65
2022/05/13 05:11:11;;;;;;;14.63;8.50;;;17.30;99.90;;;;;;5104700;28;20097;-64
2022/05/13 05:13:45;;;;;;;16.80;8.38;;;17.40;99.90;;;;;;5102107;28;20119;-64
2022/05/13 05:16:15;;;;;;;15.98;8.55;;;17.40;99.90;;;;;;5093664;28;20084;-65
2022/05/13 05:18:43;;;;;;;14.90;8.57;;;17.40;99.90;;;;;;5096163;28;20119;-65
2022/05/13 05:21:12;;;;;;;12.45;9.13;;;17.40;99.90;;;;;;5103016;28;20039;-65
2022/05/13 05:23:42;;;;;;;12.32;8.40;;;17.50;99.90;;;;;;5097591;28;20059;-65
2022/05/13 05:26:11;;;;;;;13.32;8.07;;;17.60;99.90;;;;;;5106314;28;20046;-64
2022/05/13 05:28:39;;;;;;;12.38;8.32;;;17.60;99.90;;;;;;5109150;28;20040;-64
2022/05/13 05:31:08;;;;;;;18.85;8.48;;;17.70;99.90;;;;;;5093104;28;20359;-65
2022/05/13 05:33:36;;;;;;;12.80;8.27;;;17.80;99.90;;;;;;5099288;28;20050;-64
2022/05/13 05:36:04;;;;;;;12.18;8.05;;;17.80;99.90;;;;;;5087579;28;20083;-65
2022/05/13 05:38:32;;;;;;;11.88;7.93;;;17.80;99.90;;;;;;5095406;28;20037;-64
2022/05/13 05:41:00;;;;;;;13.48;8.13;;;17.80;99.90;;;;;;5090306;28;20052;-63
2022/05/13 05:43:28;;;;;;;14.18;7.50;;;17.90;99.90;;;;;;5094557;28;20044;-66
2022/05/13 05:45:58;;;;;;;11.73;7.70;;;18.00;99.90;;;;;;5092945;28;20437;-65
2022/05/13 05:48:26;;;;;;;12.98;7.00;;;18.00;99.90;;;;;;5097876;28;20073;-65
2022/05/13 05:50:55;;;;;;;8.30;6.32;;;18.10;99.90;;;;;;5102299;27;20054;-64
2022/05/13 05:58:58;;;;;;;13.52;7.28;;;18.20;99.90;;;;;;5102583;27;20061;-65
2022/05/13 06:01:25;;;;;;;14.18;6.82;;;18.20;99.90;;;;;;5115332;27;20089;-64
2022/05/13 06:03:53;;;;;;;10.20;6.63;;;18.10;99.90;;;;;;5114853;27;20039;-64
2022/05/13 06:06:20;;;;;;;9.95;6.63;;;18.10;99.90;;;;;;5096126;27;20067;-64
2022/05/13 06:08:49;;;;;;;13.52;6.28;;;18.10;99.90;;;;;;5113868;27;20044;-65
2022/05/13 06:11:16;;;;;;;12.82;6.68;;;18.10;99.90;;;;;;5102612;27;20044;-66
2022/05/13 06:13:43;;;;;;;15.57;7.05;;;18.00;99.90;;;;;;5109985;27;20044;-67
2022/05/13 06:16:10;;;;;;;9.80;6.18;;;18.20;99.90;;;;;;5102902;27;20071;-68
2022/05/13 06:18:38;;;;;;;9.38;6.22;;;18.40;99.90;;;;;;5109586;27;20028;-67
2022/05/13 06:21:05;;;;;;;9.75;6.32;;;18.50;99.90;;;;;;5104205;28;20066;-66
2022/05/13 06:23:35;;;;;;;14.57;6.50;;;18.60;99.90;;;;;;5099090;28;20040;-68
2022/05/13 06:26:03;;;;;;;11.00;5.70;;;18.70;99.90;;;;;;5102345;27;20058;-66
2022/05/13 06:28:30;;;;;;;14.02;5.97;;;18.80;99.90;;;;;;5102790;28;20040;-67
2022/05/13 06:30:58;;;;;;;14.90;5.90;;;19.00;99.90;;;;;;5094595;28;20040;-69
2022/05/13 06:33:26;;;;;;;11.02;5.70;;;19.00;99.90;;;;;;5101575;28;20052;-69
2022/05/13 06:35:54;;;;;;;9.80;4.63;;;19.10;99.90;;;;;;5112485;28;20075;-67
2022/05/13 06:38:25;;;;;;;10.10;4.00;;;19.10;99.90;;;;;;5109924;28;20407;-69
2022/05/13 06:40:54;;;;;;;6.90;4.27;;;19.10;99.90;;;;;;5100745;28;20068;-69
2022/05/13 06:43:22;;;;;;;9.50;3.88;;;19.10;99.90;;;;;;5094788;28;20061;-69
2022/05/13 06:45:50;;;;;;;9.57;4.20;;;19.10;99.90;;;;;;5104123;28;20621;-67
2022/05/13 06:48:17;;;;;;;10.98;4.40;;;19.20;99.90;;;;;;5112222;28;20115;-67
2022/05/13 06:50:46;;;;;;;10.90;4.15;;;19.50;99.90;;;;;;5099916;28;20438;-68
2022/05/13 06:53:16;;;;;;;8.35;3.70;;;19.30;99.90;;;;;;5096646;28;20056;-68
2022/05/13 06:55:44;;;;;;;9.25;3.53;;;19.40;99.90;;;;;;5100115;28;20362;-69
2022/05/13 06:58:13;;;;;;;9.90;3.40;;;19.40;99.90;;;;;;5110955;28;20043;-66
2022/05/13 07:00:43;;;;;;;7.57;3.63;;;19.20;99.90;;;;;;5110990;28;20071;-68
2022/05/13 07:03:16;;;;;;;10.27;3.60;;;19.20;99.90;;;;;;5112480;28;20565;-70
2022/05/13 07:05:43;;;;;;;10.27;3.33;;;19.10;99.90;;;;;;5092233;28;20072;-67
2022/05/13 07:08:12;;;;;;;9.35;3.17;;;19.10;99.90;;;;;;5103513;28;20447;-71
2022/05/13 07:10:41;;;;;;;14.15;2.80;;;19.10;99.90;;;;;;5112172;28;20089;-68
2022/05/13 07:13:10;;;;;;;6.65;2.88;;;19.20;99.90;;;;;;5112637;28;20077;-70
2022/05/13 07:15:37;;;;;;;9.73;2.88;;;19.20;99.90;;;;;;5111970;28;20051;-68
2022/05/13 07:18:05;;;;;;;10.10;3.40;;;19.20;99.90;;;;;;5110160;28;20048;-70
2022/05/13 07:20:32;;;;;;;9.40;2.80;;;19.20;99.90;;;;;;5110988;28;20574;-69
2022/05/13 07:22:59;;;;;;;6.93;3.00;;;19.40;99.90;;;;;;5095109;27;20040;-67
2022/05/13 07:25:27;;;;;;;9.73;2.75;;;19.50;99.90;;;;;;5092871;28;20050;-67
2022/05/13 07:27:55;;;;;;;10.35;3.55;;;19.50;99.90;;;;;;5098924;28;20525;-68
2022/05/13 07:30:23;;;;;;;9.65;3.45;;;19.50;99.90;;;;;;5108444;28;20044;-69
2022/05/13 07:32:50;;;;;;;7.30;2.97;;;19.50;99.90;;;;;;5100384;28;20126;-70
2022/05/13 07:35:18;;;;;;;8.85;3.42;;;19.60;99.90;;;;;;5085337;28;20166;-69
2022/05/13 07:37:46;;;;;;;9.48;3.20;;;19.60;99.90;;;;;;5103889;27;20090;-68
2022/05/13 07:43:00;;;;;;;9.38;2.90;;;20.00;99.90;;;;;;5102779;28;20147;-69
2022/05/13 07:45:28;;;;;;;8.82;2.42;;;20.00;99.90;;;;;;5092019;28;20036;-69
2022/05/13 07:47:55;;;;;;;7.07;2.60;;;20.00;99.90;;;;;;5098018;28;20071;-70
2022/05/13 07:50:23;;;;;;;8.63;2.60;;;19.70;99.90;;;;;;5105697;28;20148;-69
2022/05/13 07:52:51;;;;;;;7.45;2.67;;;19.70;99.90;;;;;;5104047;28;20502;-67
2022/05/13 07:55:19;;;;;;;5.07;2.17;;;19.80;99.90;;;;;;5100571;28;20147;-67
2022/05/13 07:57:47;;;;;;;6.65;2.47;;;19.80;99.90;;;;;;5099506;28;20677;-67
2022/05/13 08:00:25;;;;;;;5.43;2.50;;;20.00;99.90;;;;;;5097381;27;20517;-69
2022/05/13 08:03:13;;;;;;;6.32;2.15;;;20.10;99.90;;;;;;5090916;28;20491;-68
2022/05/13 08:05:48;;;;;;;5.20;2.20;;;20.20;99.90;;;;;;5091591;28;20047;-68
2022/05/13 08:08:26;;;;;;;7.32;2.30;;;20.30;99.90;;;;;;5095732;28;20070;-70
2022/05/13 08:10:57;;;;;;;7.18;2.50;;;20.30;99.90;;;;;;5112873;27;20039;-70
2022/05/13 08:13:25;;;;;;;6.13;2.33;;;20.00;99.90;;;;;;5110827;28;20590;-66
2022/05/13 08:15:52;;;;;;;11.45;2.55;;;20.00;99.90;;;;;;5091618;28;20048;-68
2022/05/13 08:18:21;;;;;;;11.43;2.22;;;20.10;99.90;;;;;;5101399;28;20055;-67
2022/05/13 08:20:50;;;;;;;4.47;1.67;;;20.00;99.90;;;;;;5096537;27;20532;-67
2022/05/13 08:23:18;;;;;;;6.05;2.10;;;19.80;99.90;;;;;;5099956;28;20047;-68
2022/05/13 08:25:46;;;;;;;9.43;2.50;;;20.00;99.90;;;;;;5103975;28;20116;-68
2022/05/13 08:28:15;;;;;;;6.15;2.20;;;20.00;99.90;;;;;;5094371;28;20040;-67
2022/05/13 08:30:42;;;;;;;7.13;2.22;;;20.10;99.90;;;;;;5110943;28;20047;-70
2022/05/13 08:33:11;;;;;;;7.00;2.45;;;20.20;99.90;;;;;;5100984;28;20112;-68
2022/05/13 08:35:45;;;;;;;7.60;2.15;;;20.00;99.90;;;;;;5096215;28;20050;-68
2022/05/13 08:38:17;;;;;;;5.20;2.10;;;19.80;99.90;;;;;;5109387;28;20050;-65
2022/05/13 08:40:50;;;;;;;7.53;2.40;;;19.90;99.90;;;;;;5108921;28;20039;-67
2022/05/13 08:43:43;;;;;;;10.38;2.30;;;20.10;99.90;;;;;;5104487;28;20421;-67
2022/05/13 08:46:17;;;;;;;6.85;2.33;;;20.00;99.90;;;;;;5108414;28;20043;-68
2022/05/13 08:48:57;;;;;;;7.80;2.42;;;20.10;99.90;;;;;;5102263;28;20126;-67
2022/05/13 08:51:27;;;;;;;8.95;2.65;;;20.20;99.90;;;;;;5092000;28;20086;-68
2022/05/13 08:54:05;;;;;;;3.45;1.70;;;20.30;99.90;;;;;;5096506;28;20502;-70
2022/05/13 08:56:32;;;;;;;10.85;2.03;;;20.40;99.90;;;;;;5094130;28;20066;-68
2022/05/13 08:59:07;;;;;;;4.57;1.92;;;20.50;99.90;;;;;;5096607;27;20100;-68
2022/05/13 09:01:44;;;;;;;8.32;2.00;;;20.60;99.90;;;;;;5095134;28;20036;-67
2022/05/13 09:04:26;;;;;;;6.10;2.22;;;20.60;99.90;;;;;;5102220;28;20119;-67
2022/05/13 09:07:00;;;;;;;7.03;2.97;;;20.60;99.90;;;;;;5103663;28;20050;-67
2022/05/13 09:09:28;;;;;;;7.88;2.60;;;20.60;99.90;;;;;;5111709;27;20035;-68
2022/05/13 09:11:58;;;;;;;4.95;1.92;;;20.50;99.90;;;;;;5107860;27;20036;-68
2022/05/13 09:14:34;;;;;;;6.97;2.17;;;20.60;99.90;;;;;;5104675;28;20069;-67
2022/05/13 09:17:23;;;;;;;7.68;2.15;;;20.30;99.90;;;;;;5103917;28;20036;-68
2022/05/13 09:20:03;;;;;;;8.73;2.50;;;20.50;99.90;;;;;;5095337;27;20543;-69
2022/05/13 09:22:36;;;;;;;9.00;3.00;;;20.50;99.90;;;;;;5103606;28;20039;-67
2022/05/13 09:25:05;;;;;;;10.05;2.47;;;20.30;99.90;;;;;;5107697;28;20047;-66
2022/05/13 09:27:51;;;;;;;8.18;2.65;;;20.40;99.90;;;;;;5092082;27;20522;-67
2022/05/13 09:30:21;;;;;;;7.80;2.38;;;20.90;99.90;;;;;;5098242;28;20474;-70
2022/05/13 09:32:49;;;;;;;4.97;2.33;;;21.10;99.90;;;;;;5103108;28;20096;-67
2022/05/13 09:35:39;;;;;;;5.82;2.20;;;21.10;99.90;;;;;;5097503;28;20054;-68
2022/05/13 09:38:28;;;;;;;8.85;2.35;;;21.20;99.90;;;;;;5096674;28;20149;-67
2022/05/13 09:41:10;;;;;;;8.25;2.30;;;21.30;99.90;;;;;;5107428;28;20050;-69
2022/05/13 09:43:52;;;;;;;7.85;2.15;;;21.00;99.90;;;;;;5106447;28;20074;-69
2022/05/13 09:46:37;;;;;;;10.43;2.45;;;20.60;99.90;;;;;;5104274;28;20047;-68
2022/05/13 09:49:26;;;;;;;6.90;2.85;;;20.40;99.90;;;;;;5105448;28;20063;-69
2022/05/13 09:52:08;;;;;;;10.38;2.58;;;20.30;99.90;;;;;;5098397;28;20118;-66
2022/05/13 09:54:37;;;;;;;;;;;20.40;99.90;;;;;;5093795;28;20123;-68
2022/05/13 09:57:12;;;;;;;7.25;2.38;;;20.60;99.90;;;;;;5099125;28;19939;-68
2022/05/13 09:59:45;;;;;;;8.25;2.38;;;20.50;99.90;;;;;;5096899;28;20043;-65
2022/05/13 10:02:23;;;;;;;9.75;2.72;;;20.70;99.90;;;;;;5104930;28;20043;-65
2022/05/13 10:05:09;;;;;;;5.22;2.03;;;21.00;99.90;;;;;;5097207;28;20498;-64
2022/05/13 10:08:01;;;;;;;9.10;2.58;;;20.80;99.90;;;;;;5108212;28;20028;-66
2022/05/13 10:16:12;;;;;;;6.22;2.17;;;20.80;99.90;;;;;;5089355;28;20530;-64
2022/05/13 10:18:52;;;;;;;5.55;2.30;;;21.10;99.90;;;;;;5105945;28;20043;-68
2022/05/13 10:21:27;;;;;;;7.53;2.53;;;21.00;99.90;;;;;;5101535;28;20039;-65
2022/05/13 10:23:57;;;;;;;8.15;2.53;;;20.90;99.90;;;;;;5108682;28;20116;-66
2022/05/13 10:26:45;;;;;;;7.53;2.80;;;21.20;99.90;;;;;;5097414;28;20066;-67
2022/05/13 10:29:12;;;;;;;6.18;2.42;;;21.30;99.90;;;;;;5094811;28;20435;-65
2022/05/13 10:31:42;;;;;;;6.53;2.30;;;21.30;99.90;;;;;;5108604;27;20382;-66
2022/05/13 10:34:29;;;;;;;4.95;2.40;;;21.20;99.90;;;;;;5095596;28;20537;-66
2022/05/13 10:37:07;;;;;;;5.88;2.13;;;21.50;99.90;;;;;;5110818;28;20056;-67
2022/05/13 10:39:53;;;;;;;7.00;2.30;;;21.40;99.90;;;;;;5106141;28;20032;-67
2022/05/13 10:42:29;;;;;;;4.25;2.05;;;21.60;99.90;;;;;;5112600;28;20036;-65
2022/05/13 10:45:25;;;;;;;8.93;2.10;;;21.70;99.90;;;;;;5106846;27;20097;-65
2022/05/13 10:48:12;;;;;;;8.30;2.13;;;21.70;99.90;;;;;;5104415;27;20498;-66
2022/05/13 10:51:02;;;;;;;5.38;1.90;;;22.00;99.90;;;;;;5103179;27;20555;-66
2022/05/13 10:53:54;;;;;;;6.97;2.40;;;22.30;99.90;;;;;;5101408;28;20039;-67
2022/05/13 10:56:41;;;;;;;9.20;2.30;;;22.30;99.90;;;;;;5103662;28;20044;-65
2022/05/13 10:59:29;;;;;;;8.55;1.80;;;22.30;99.90;;;;;;5113008;27;20042;-66
2022/05/13 11:02:41;;;;;;;6.55;1.80;;;22.50;99.90;;;;;;5103755;28;20093;-66
2022/05/13 11:05:20;;;;;;;5.75;1.67;;;22.20;99.90;;;;;;5102264;28;20143;-66
2022/05/13 11:07:53;;;;;;;6.80;1.80;;;21.90;99.90;;;;;;5099087;28;20038;-67
2022/05/13 11:11:02;;;;;;;5.50;1.90;;;22.00;99.90;;;;;;5098450;28;20058;-66
2022/05/13 11:13:52;;;;;;;7.47;2.10;;;22.30;99.90;;;;;;5107188;28;20040;-66
2022/05/13 11:16:42;;;;;;;5.28;1.63;;;22.40;99.90;;;;;;5092647;28;20154;-67
2022/05/13 11:19:21;;;;;;;5.10;1.77;;;22.50;99.90;;;;;;5100700;27;20046;-67
2022/05/13 11:22:02;;;;;;;7.80;1.98;;;22.80;99.90;;;;;;5102804;28;20540;-66
2022/05/13 11:27:53;;;;;;;5.20;1.80;;;23.10;99.90;;;;;;5027635;28;20076;-64
2022/05/13 11:30:45;;;;;;;6.50;1.80;;;23.20;99.90;;;;;;5032896;28;20050;-67
2022/05/13 11:33:19;;;;;;;6.60;1.45;;;23.70;99.90;;;;;;5044260;28;20550;-65
2022/05/13 11:36:12;;;;;;;5.32;1.70;;;23.40;99.90;;;;;;5047203;28;20153;-65
2022/05/13 11:39:01;;;;;;;7.57;2.00;;;23.70;99.90;;;;;;5045820;28;20063;-67
2022/05/13 11:41:59;;;;;;;6.13;1.60;;;23.60;99.90;;;;;;5045683;28;20603;-65
2022/05/13 11:44:59;;;;;;;7.10;1.77;;;24.10;99.90;;;;;;5043659;28;20090;-65
2022/05/13 11:48:14;;;;;;;6.70;1.92;;;24.10;99.90;;;;;;5028567;28;20045;-64
2022/05/13 11:50:42;;;;;;;6.30;1.63;;;25.00;99.90;;;;;;5038472;28;20735;-65
2022/05/13 11:53:09;;;;;;;8.75;2.00;;;24.80;99.90;;;;;;5044828;28;20113;-65
2022/05/13 11:55:41;;;;;;;6.60;1.67;;;24.60;99.90;;;;;;5036631;28;20100;-65
2022/05/13 11:58:29;;;;;;;7.13;1.73;;;24.20;99.80;;;;;;5046136;28;20118;-66
2022/05/13 12:00:57;;;;;;;5.88;1.67;;;23.70;99.80;;;;;;5017053;28;20049;-65
2022/05/13 12:03:24;;;;;;;5.85;1.58;;;23.60;99.50;;;;;;5062890;28;20497;-66
2022/05/13 12:06:10;;;;;;;5.25;1.80;;;23.90;99.60;;;;;;5088215;28;20549;-65
2022/05/13 12:08:44;;;;;;;3.63;1.70;;;24.10;99.80;;;;;;5089179;28;20056;-66
2022/05/13 12:11:53;;;;;;;6.07;2.00;;;24.00;99.50;;;;;;5106488;27;20051;-65
2022/05/13 12:14:26;;;;;;;5.35;1.90;;;23.90;99.60;;;;;;5100340;28;20051;-66
2022/05/13 12:17:18;;;;;;;6.60;1.70;;;24.30;99.90;;;;;;5102218;28;20044;-66
2022/05/13 12:19:58;;;;;;;8.82;1.85;;;24.40;98.60;;;;;;5100123;27;20077;-65
2022/05/13 12:22:44;;;;;;;8.88;1.88;;;25.30;98.50;;;;;;5095381;28;20040;-67
2022/05/13 12:25:32;;;;;;;5.25;1.70;;;25.00;98.40;;;;;;5109334;27;20048;-65
2022/05/13 12:28:04;;;;;;;9.35;1.85;;;25.30;98.60;;;;;;5106627;28;20036;-67
2022/05/13 12:30:35;;;;;;;5.68;1.63;;;26.00;98.00;;;;;;5109944;28;20102;-65
2022/05/13 12:33:20;;;;;;;7.50;1.97;;;26.60;97.60;;;;;;5108846;28;20073;-64
2022/05/13 12:39:10;;;;;;;5.78;1.50;;;27.60;95.50;;;;;;5088603;28;20051;-65
2022/05/13 12:41:43;;;;;;;6.50;1.88;;;28.00;93.90;;;;;;5096934;28;20506;-65
2022/05/13 12:44:14;;;;;;;5.18;1.50;;;27.10;94.90;;;;;;5104022;28;20094;-65
2022/05/13 12:46:48;;;;;;;5.38;1.85;;;27.30;95.20;;;;;;5108678;28;20043;-67
2022/05/13 12:49:21;;;;;;;5.85;1.95;;;27.10;93.90;;;;;;5108507;28;20154;-67
2022/05/13 12:52:04;;;;;;;6.95;1.83;;;27.00;94.30;;;;;;5104129;28;20052;-67
2022/05/13 12:54:42;;;;;;;7.28;1.73;;;26.60;94.10;;;;;;5086937;28;20040;-65
2022/05/13 12:57:37;;;;;;;4.55;1.60;;;25.30;95.40;;;;;;5105999;28;20403;-66
2022/05/13 13:00:19;;;;;;;7.47;1.83;;;25.50;95.70;;;;;;5093770;28;20042;-65
2022/05/13 13:02:51;;;;;;;6.78;1.60;;;25.50;96.20;;;;;;5088542;28;20048;-66
2022/05/13 13:05:23;;;;;;;6.82;1.60;;;25.10;96.00;;;;;;5102106;28;20101;-66
2022/05/13 13:07:55;;;;;;;;;;;25.50;96.20;;;;;;5102436;28;20426;-65
2022/05/13 13:10:23;;;;;;;5.28;1.77;;;25.80;95.60;;;;;;5111233;27;19966;-67
2022/05/13 13:13:16;;;;;;;5.25;1.65;;;26.00;95.30;;;;;;5100657;28;20051;-65
2022/05/13 13:16:00;;;;;;;6.10;1.77;;;25.90;96.00;;;;;;5091540;28;20076;-66
2022/05/13 13:18:34;;;;;;;11.45;2.00;;;26.10;95.30;;;;;;5100017;28;20111;-66
2022/05/13 13:21:07;;;;;;;6.70;1.70;;;26.40;95.30;;;;;;5092552;28;20031;-66
2022/05/13 13:23:40;;;;;;;6.15;1.40;;;26.00;95.10;;;;;;5089427;28;20428;-66
2022/05/13 13:26:10;;;;;;;8.27;1.65;;;26.20;95.40;;;;;;5104754;28;20036;-66
2022/05/13 13:28:40;;;;;;;7.47;1.97;;;26.50;95.20;;;;;;5097134;28;20401;-67
2022/05/13 13:31:14;;;;;;;8.40;1.92;;;26.40;94.40;;;;;;5106915;28;20115;-66
2022/05/13 13:33:58;;;;;;;6.35;1.60;;;26.20;94.20;;;;;;5100838;28;20039;-65
2022/05/13 13:36:33;;;;;;;3.28;1.30;;;26.80;94.70;;;;;;5100365;28;20507;-66
2022/05/13 13:39:22;;;;;;;4.20;1.60;;;28.10;93.60;;;;;;5102936;28;20039;-66
2022/05/13 13:41:59;;;;;;;6.10;1.90;;;27.90;92.80;;;;;;5104803;28;20958;-66
2022/05/13 13:44:26;;;;;;;6.32;1.65;;;27.70;92.90;;;;;;5107168;28;20088;-66
2022/05/13 13:46:54;;;;;;;4.95;1.45;;;27.90;92.80;;;;;;5091005;28;20119;-67